Time;durP1;ratioP1;P1;durP2;ratioP2;P2;SDS_P1;SDS_P2;PMS_P1;PMS_P2;Temp;Humidity;BMP_temperature;BMP_pressure;BME280_temperature;BME280_humidity;BME280_pressure;Samples;Min_cycle;Max_cycle;Signal;HPM_P1;HPM_P2
2020/12/20 00:02:09;;;;;;;98.18;49.10;;;179.50;2124.80;;;;;;5068568;28;20032;-60
2020/12/20 00:04:34;;;;;;;102.28;47.03;;;179.60;2124.80;;;;;;5069732;28;20357;-62
2020/12/20 00:07:00;;;;;;;91.13;45.20;;;179.70;2099.20;;;;;;5066070;28;20049;-60
2020/12/20 00:09:26;;;;;;;102.95;47.75;;;179.80;2099.20;;;;;;5068101;28;20029;-64
2020/12/20 00:11:53;;;;;;;99.65;47.67;;;179.80;2099.20;;;;;;5068609;28;20035;-59
2020/12/20 00:14:28;;;;;;;108.30;48.72;;;179.90;2073.60;;;;;;5068313;28;20104;-59
2020/12/20 00:16:59;;;;;;;101.45;47.80;;;179.90;2099.20;;;;;;5049875;28;20033;-59
2020/12/20 00:19:25;;;;;;;104.47;48.45;;;179.90;2099.20;;;;;;5068608;28;20024;-58
2020/12/20 00:22:05;;;;;;;95.72;45.00;;;179.80;2099.20;;;;;;5068690;28;20129;-58
2020/12/20 00:24:31;;;;;;;93.15;44.20;;;179.80;2124.80;;;;;;5067983;28;20024;-58
2020/12/20 00:26:57;;;;;;;101.93;46.67;;;179.80;2124.80;;;;;;5067855;28;20035;-60
2020/12/20 00:29:24;;;;;;;92.88;45.20;;;180.00;2124.80;;;;;;5067733;28;20039;-58
2020/12/20 00:31:50;;;;;;;91.53;46.40;;;180.00;2099.20;;;;;;5067521;28;20017;-62
2020/12/20 00:34:16;;;;;;;100.30;44.97;;;180.00;2099.20;;;;;;5069198;28;20039;-59
2020/12/20 00:36:46;;;;;;;101.32;44.60;;;180.00;2099.20;;;;;;5067982;28;20033;-57
2020/12/20 00:39:14;;;;;;;87.10;42.03;;;179.90;2099.20;;;;;;5068183;28;20025;-59
2020/12/20 00:41:41;;;;;;;91.88;44.88;;;180.00;2099.20;;;;;;5069167;28;20131;-58
2020/12/20 00:44:08;;;;;;;90.30;42.85;;;179.90;2124.80;;;;;;5069692;28;20602;-59
2020/12/20 00:46:35;;;;;;;89.05;42.90;;;180.00;2073.60;;;;;;5068867;28;20044;-59
2020/12/20 00:49:04;;;;;;;95.20;42.88;;;179.30;2150.40;;;;;;5068094;28;20024;-59
2020/12/20 00:51:32;;;;;;;98.60;43.85;;;154.30;2201.60;;;;;;5069818;28;20025;-59
2020/12/20 00:53:58;;;;;;;99.28;45.78;;;153.90;2252.80;;;;;;5072865;28;20021;-59
2020/12/20 00:56:24;;;;;;;101.32;46.78;;;153.70;2252.80;;;;;;5071916;28;20047;-61
2020/12/20 00:58:50;;;;;;;100.82;46.65;;;153.80;2252.80;;;;;;5072111;28;20573;-62
2020/12/20 01:01:16;;;;;;;100.65;46.30;;;154.20;2227.20;;;;;;5072879;28;20497;-63
2020/12/20 01:03:42;;;;;;;100.05;46.15;;;154.50;2201.60;;;;;;5072217;28;20518;-61
2020/12/20 01:06:14;;;;;;;94.55;44.70;;;179.30;2176.00;;;;;;5071438;28;20151;-60
2020/12/20 01:08:40;;;;;;;94.60;44.38;;;179.40;2150.40;;;;;;5072044;28;20019;-57
2020/12/20 01:11:07;;;;;;;101.13;45.33;;;179.40;2150.40;;;;;;5071633;28;20020;-58
2020/12/20 01:13:32;;;;;;;92.93;44.13;;;179.60;2124.80;;;;;;5072329;28;20035;-56
2020/12/20 01:15:58;;;;;;;100.05;45.40;;;179.60;2124.80;;;;;;5071691;28;20033;-59
2020/12/20 01:18:24;;;;;;;98.75;45.03;;;179.20;2150.40;;;;;;5070731;28;20489;-58
2020/12/20 01:20:49;;;;;;;111.65;47.85;;;179.40;2150.40;;;;;;5070538;28;20032;-62
2020/12/20 01:23:15;;;;;;;97.43;44.55;;;179.50;2150.40;;;;;;5070560;28;20023;-59
2020/12/20 01:25:41;;;;;;;96.13;43.35;;;179.70;2124.80;;;;;;5070599;28;20021;-58
2020/12/20 01:28:07;;;;;;;95.15;45.45;;;179.70;2124.80;;;;;;5071080;28;20046;-59
2020/12/20 01:30:32;;;;;;;99.13;44.78;;;179.60;2124.80;;;;;;5070029;28;20071;-56
2020/12/20 01:32:58;;;;;;;102.40;43.92;;;179.60;2150.40;;;;;;5072436;28;20047;-56
2020/12/20 01:35:23;;;;;;;95.68;45.85;;;179.60;2150.40;;;;;;5074455;28;20031;-56
2020/12/20 01:37:49;;;;;;;104.90;48.60;;;179.70;2124.80;;;;;;5073765;28;20033;-56
2020/12/20 01:40:15;;;;;;;101.57;46.45;;;154.50;2176.00;;;;;;5073650;28;20020;-56
2020/12/20 01:42:40;;;;;;;109.78;49.33;;;154.50;2201.60;;;;;;5074082;28;20024;-56
2020/12/20 01:45:06;;;;;;;95.88;45.90;;;179.30;2201.60;;;;;;5072464;28;20374;-56
2020/12/20 01:47:33;;;;;;;98.80;45.42;;;179.40;2201.60;;;;;;5073103;28;20021;-55
2020/12/20 01:50:00;;;;;;;97.50;46.20;;;179.50;2176.00;;;;;;5073314;28;20405;-56
2020/12/20 01:52:27;;;;;;;90.60;42.33;;;179.60;2150.40;;;;;;5073828;28;20025;-56
2020/12/20 01:54:56;;;;;;;92.05;41.60;;;179.70;2124.80;;;;;;5073853;28;20351;-54
2020/12/20 01:57:22;;;;;;;111.15;46.75;;;179.70;2124.80;;;;;;5073937;28;20033;-56
2020/12/20 01:59:48;;;;;;;99.95;45.33;;;179.60;2150.40;;;;;;5073580;28;20016;-56
2020/12/20 02:02:14;;;;;;;96.50;43.15;;;179.60;2150.40;;;;;;5072039;28;20450;-56
2020/12/20 02:04:43;;;;;;;95.47;42.13;;;179.60;2150.40;;;;;;5073812;28;20028;-56
2020/12/20 02:07:10;;;;;;;98.43;43.80;;;179.60;2150.40;;;;;;5073112;28;20040;-56
2020/12/20 02:09:35;;;;;;;101.00;44.38;;;179.60;2150.40;;;;;;5073508;28;20075;-56
2020/12/20 02:12:06;;;;;;;101.47;45.78;;;179.60;2150.40;;;;;;5054984;28;20063;-55
2020/12/20 02:14:32;;;;;;;105.55;45.55;;;179.30;2176.00;;;;;;5073727;28;20071;-55
2020/12/20 02:16:58;;;;;;;104.47;46.53;;;154.30;2227.20;;;;;;5073629;28;20060;-55
2020/12/20 02:19:24;;;;;;;107.10;44.88;;;179.20;2201.60;;;;;;5073519;28;20043;-57
2020/12/20 02:21:50;;;;;;;108.03;46.78;;;179.20;2176.00;;;;;;5073742;28;20467;-56
2020/12/20 02:24:15;;;;;;;106.18;46.45;;;179.40;2176.00;;;;;;5073674;28;20023;-57
2020/12/20 02:26:42;;;;;;;103.15;43.88;;;179.40;2176.00;;;;;;5073521;28;20036;-56
2020/12/20 02:29:08;;;;;;;107.35;47.78;;;179.40;2176.00;;;;;;5073460;28;20490;-56
2020/12/20 02:31:34;;;;;;;98.28;44.58;;;179.50;2150.40;;;;;;5073453;28;20024;-56
2020/12/20 02:34:00;;;;;;;107.85;45.13;;;179.50;2150.40;;;;;;5073435;28;20024;-56
2020/12/20 02:36:26;;;;;;;98.65;44.28;;;179.50;2150.40;;;;;;5073311;28;20036;-56
2020/12/20 02:38:51;;;;;;;105.50;44.95;;;179.60;2150.40;;;;;;5073393;28;20025;-54
2020/12/20 02:41:18;;;;;;;111.32;46.92;;;179.50;2150.40;;;;;;5073039;28;20036;-55
2020/12/20 02:43:44;;;;;;;106.47;47.05;;;179.40;2150.40;;;;;;5073435;28;20092;-55
2020/12/20 02:46:09;;;;;;;100.65;45.85;;;179.40;2150.40;;;;;;5073206;28;20024;-56
2020/12/20 02:48:35;;;;;;;101.97;44.15;;;179.50;2150.40;;;;;;5072923;28;20027;-57
2020/12/20 02:51:01;;;;;;;119.43;47.05;;;179.40;2150.40;;;;;;5073190;28;20076;-55
2020/12/20 02:53:26;;;;;;;108.95;44.67;;;179.40;2150.40;;;;;;5073006;28;20129;-56
2020/12/20 02:55:52;;;;;;;114.18;49.33;;;179.40;2150.40;;;;;;5072831;28;20096;-55
2020/12/20 02:58:18;;;;;;;103.90;47.45;;;179.30;2150.40;;;;;;5072977;28;20024;-56
2020/12/20 03:00:44;;;;;;;114.18;49.25;;;179.30;2176.00;;;;;;5072904;28;20024;-55
2020/12/20 03:03:10;;;;;;;110.13;49.00;;;179.40;2150.40;;;;;;5072898;28;20491;-56
2020/12/20 03:05:36;;;;;;;114.07;48.03;;;179.40;2150.40;;;;;;5072658;28;20048;-56
2020/12/20 03:08:02;;;;;;;108.88;47.35;;;179.40;2150.40;;;;;;5072955;28;20367;-56
2020/12/20 03:10:28;;;;;;;113.43;49.72;;;179.40;2176.00;;;;;;5072438;28;20036;-56
2020/12/20 03:12:54;;;;;;;106.50;47.92;;;179.50;2150.40;;;;;;5072492;28;20031;-56
2020/12/20 03:15:19;;;;;;;103.22;46.63;;;179.40;2150.40;;;;;;5072741;28;20020;-56
2020/12/20 03:17:45;;;;;;;104.68;49.53;;;179.40;2176.00;;;;;;5072707;28;20364;-57
2020/12/20 03:20:11;;;;;;;105.10;51.08;;;179.30;2176.00;;;;;;5073033;28;20025;-56
2020/12/20 03:22:37;;;;;;;106.78;47.95;;;179.40;2150.40;;;;;;5072171;28;20028;-57
2020/12/20 03:25:04;;;;;;;117.20;52.30;;;179.40;2150.40;;;;;;5072777;28;20032;-56
2020/12/20 03:27:30;;;;;;;103.10;46.95;;;179.40;2176.00;;;;;;5072338;28;20024;-57
2020/12/20 03:29:55;;;;;;;110.60;49.83;;;179.50;2150.40;;;;;;5072708;28;20447;-57
2020/12/20 03:32:21;;;;;;;111.63;50.60;;;179.50;2150.40;;;;;;5072083;28;20387;-57
2020/12/20 03:34:47;;;;;;;108.45;48.95;;;179.60;2124.80;;;;;;5070641;28;20032;-57
2020/12/20 03:37:12;;;;;;;116.47;49.40;;;179.50;2150.40;;;;;;5071882;28;20425;-57
2020/12/20 03:39:38;;;;;;;110.45;50.38;;;179.60;2124.80;;;;;;5072481;28;20025;-57
2020/12/20 03:42:04;;;;;;;111.30;49.75;;;179.60;2124.80;;;;;;5072067;28;20035;-57
2020/12/20 03:44:30;;;;;;;99.95;48.17;;;179.50;2124.80;;;;;;5071185;28;20021;-56
2020/12/20 03:46:56;;;;;;;103.22;47.30;;;179.60;2124.80;;;;;;5072467;28;20081;-57
2020/12/20 03:49:21;;;;;;;104.78;49.40;;;179.60;2124.80;;;;;;5072515;28;20024;-57
2020/12/20 03:51:47;;;;;;;106.78;48.70;;;179.40;2150.40;;;;;;5072709;28;20024;-57
2020/12/20 03:54:13;;;;;;;107.05;50.85;;;179.40;2150.40;;;;;;5071988;28;20584;-56
2020/12/20 03:56:38;;;;;;;109.53;51.08;;;179.40;2150.40;;;;;;5071976;28;20029;-59
2020/12/20 03:59:04;;;;;;;102.82;50.22;;;179.40;2150.40;;;;;;5072493;28;20482;-57
2020/12/20 04:01:30;;;;;;;99.43;45.92;;;179.40;2150.40;;;;;;5072088;28;20479;-57
2020/12/20 04:03:55;;;;;;;98.53;45.38;;;179.50;2150.40;;;;;;5071987;28;20044;-56
2020/12/20 04:06:21;;;;;;;103.63;48.00;;;179.50;2124.80;;;;;;5071895;28;20060;-56
2020/12/20 04:08:47;;;;;;;93.57;46.15;;;179.50;2150.40;;;;;;5072346;28;20033;-57
2020/12/20 04:11:12;;;;;;;97.60;48.20;;;179.50;2150.40;;;;;;5071949;28;20117;-57
2020/12/20 04:13:38;;;;;;;96.85;46.85;;;179.70;2124.80;;;;;;5071960;28;20379;-56
2020/12/20 04:16:11;;;;;;;105.50;48.50;;;179.60;2124.80;;;;;;5071896;28;20028;-57
2020/12/20 04:18:37;;;;;;;112.43;49.60;;;179.60;2150.40;;;;;;5072037;28;20183;-57
2020/12/20 04:21:04;;;;;;;102.15;47.95;;;179.60;2150.40;;;;;;5072155;28;20483;-57
2020/12/20 04:23:30;;;;;;;100.03;46.10;;;179.60;2124.80;;;;;;5071663;28;20024;-57
2020/12/20 04:25:56;;;;;;;101.78;48.08;;;179.60;2150.40;;;;;;5074160;28;20100;-56
2020/12/20 04:28:22;;;;;;;100.25;47.33;;;179.60;2150.40;;;;;;5075766;28;20107;-57
2020/12/20 04:30:48;;;;;;;106.05;48.25;;;179.60;2124.80;;;;;;5075924;28;20078;-57
2020/12/20 04:33:14;;;;;;;102.68;46.67;;;179.60;2124.80;;;;;;5075669;28;20491;-57
2020/12/20 04:35:40;;;;;;;99.78;49.05;;;179.60;2124.80;;;;;;5075683;28;20020;-57
2020/12/20 04:38:06;;;;;;;90.80;44.58;;;179.60;2124.80;;;;;;5075700;28;20497;-57
2020/12/20 04:40:32;;;;;;;95.35;44.88;;;179.60;2124.80;;;;;;5075592;28;20032;-57
2020/12/20 04:43:08;;;;;;;96.45;45.97;;;179.60;2124.80;;;;;;5075200;28;20119;-56
2020/12/20 04:45:34;;;;;;;94.10;43.85;;;179.60;2124.80;;;;;;5075857;28;20462;-57
2020/12/20 04:48:01;;;;;;;93.78;43.10;;;179.60;2124.80;;;;;;5075476;28;20033;-57
2020/12/20 04:50:29;;;;;;;93.38;44.00;;;179.60;2124.80;;;;;;5075787;28;20259;-57
2020/12/20 04:52:56;;;;;;;100.93;43.53;;;179.60;2124.80;;;;;;5075076;28;20036;-57
2020/12/20 04:55:23;;;;;;;86.68;42.90;;;179.60;2124.80;;;;;;5076006;28;20032;-57
2020/12/20 04:57:50;;;;;;;88.80;41.28;;;179.70;2099.20;;;;;;5074973;28;20509;-57
2020/12/20 05:00:16;;;;;;;91.57;43.78;;;179.60;2124.80;;;;;;5075584;28;20021;-56
2020/12/20 05:02:42;;;;;;;86.55;42.33;;;179.80;2124.80;;;;;;5075131;28;20036;-56
2020/12/20 05:05:08;;;;;;;70.47;37.03;;;179.80;2099.20;;;;;;5075314;28;20371;-57
2020/12/20 05:07:34;;;;;;;67.78;35.50;;;179.70;2099.20;;;;;;5075180;28;20383;-57
2020/12/20 05:10:00;;;;;;;69.65;33.55;;;179.80;2073.60;;;;;;5074988;28;20031;-56
2020/12/20 05:12:29;;;;;;;65.40;33.33;;;179.90;2073.60;;;;;;5074871;28;20421;-56
2020/12/20 05:14:55;;;;;;;63.22;29.70;;;180.00;2048.00;;;;;;5075003;28;20028;-56
2020/12/20 05:17:21;;;;;;;55.85;28.73;;;180.10;2022.40;;;;;;5074972;28;20371;-56
2020/12/20 05:19:47;;;;;;;43.88;24.63;;;204.80;1996.80;;;;;;5074984;28;20027;-57
2020/12/20 05:22:18;;;;;;;43.05;22.40;;;179.90;2022.40;;;;;;5075379;28;20098;-57
2020/12/20 05:24:46;;;;;;;45.47;22.55;;;179.80;2048.00;;;;;;5074834;28;20025;-56
2020/12/20 05:27:24;;;;;;;44.83;21.98;;;179.80;2022.40;;;;;;5074739;28;20032;-58
2020/12/20 05:29:50;;;;;;;40.00;20.67;;;179.70;2022.40;;;;;;5074985;28;20035;-58
2020/12/20 05:32:30;;;;;;;42.47;20.42;;;179.80;2022.40;;;;;;5074469;28;20113;-56
2020/12/20 05:35:05;;;;;;;43.50;22.63;;;179.90;1996.80;;;;;;5074804;28;20033;-56
2020/12/20 05:37:32;;;;;;;42.08;22.65;;;180.00;1996.80;;;;;;5074084;28;20378;-56
2020/12/20 05:39:57;;;;;;;48.83;24.65;;;179.90;1996.80;;;;;;5074889;28;20415;-57
2020/12/20 05:42:24;;;;;;;45.78;22.50;;;179.80;2022.40;;;;;;5074343;28;20028;-57
2020/12/20 05:45:17;;;;;;;44.20;22.80;;;179.70;2022.40;;;;;;5074392;28;20035;-56
2020/12/20 05:47:44;;;;;;;42.72;22.17;;;180.00;2022.40;;;;;;5074436;28;20092;-55
2020/12/20 05:50:12;;;;;;;45.63;23.02;;;180.00;1996.80;;;;;;5074474;28;20020;-57
2020/12/20 05:52:39;;;;;;;49.08;21.33;;;180.00;1996.80;;;;;;5073979;28;20489;-57
2020/12/20 05:55:14;;;;;;;45.67;23.23;;;180.00;1996.80;;;;;;5074421;28;20036;-56
2020/12/20 05:57:40;;;;;;;48.33;22.75;;;179.90;2022.40;;;;;;5073882;28;20032;-56
2020/12/20 06:00:07;;;;;;;49.28;22.27;;;179.80;2022.40;;;;;;5074786;28;20490;-57
2020/12/20 06:02:33;;;;;;;47.28;23.13;;;179.80;2022.40;;;;;;5072110;28;20031;-57
2020/12/20 06:05:02;;;;;;;46.15;23.15;;;179.90;1996.80;;;;;;5073804;28;20025;-57
2020/12/20 06:07:28;;;;;;;;;;;179.80;2022.40;;;;;;5074446;28;20032;-56
2020/12/20 06:09:58;;;;;;;42.28;20.65;;;179.80;1996.80;;;;;;5074086;28;19905;-57
2020/12/20 06:12:28;;;;;;;47.60;23.55;;;179.70;1996.80;;;;;;5073525;28;20008;-56
2020/12/20 06:14:55;;;;;;;47.47;22.58;;;179.70;1996.80;;;;;;5074524;28;20013;-57
2020/12/20 06:17:26;;;;;;;50.47;24.50;;;179.70;1996.80;;;;;;5074070;28;20059;-56
2020/12/20 06:20:01;;;;;;;54.38;25.15;;;179.70;1996.80;;;;;;5073938;28;20017;-56
2020/12/20 06:22:36;;;;;;;47.83;23.33;;;179.80;1996.80;;;;;;5073410;28;20034;-56
2020/12/20 06:25:05;;;;;;;50.88;24.33;;;179.90;1971.20;;;;;;5074221;28;20021;-56
2020/12/20 06:27:32;;;;;;;50.95;25.05;;;179.80;1996.80;;;;;;5073507;28;20417;-57
2020/12/20 06:30:00;;;;;;;52.55;24.20;;;179.80;1996.80;;;;;;5055815;28;20029;-56
2020/12/20 06:32:51;;;;;;;49.87;24.03;;;179.80;1971.20;;;;;;5073597;28;20533;-56
2020/12/20 06:35:28;;;;;;;52.55;23.25;;;179.70;1971.20;;;;;;5073353;28;20265;-57
2020/12/20 06:37:55;;;;;;;51.28;24.73;;;179.40;2022.40;;;;;;5072138;28;20552;-56
2020/12/20 06:40:30;;;;;;;51.90;24.80;;;179.40;2022.40;;;;;;5073376;28;20031;-56
2020/12/20 06:42:59;;;;;;;51.20;24.77;;;179.50;2022.40;;;;;;5072953;28;20055;-57
2020/12/20 06:45:27;;;;;;;51.38;25.88;;;179.40;2022.40;;;;;;5073142;28;20021;-56
2020/12/20 06:48:00;;;;;;;48.38;23.50;;;179.40;2022.40;;;;;;5072472;28;20041;-56
2020/12/20 06:50:38;;;;;;;47.00;22.55;;;179.60;1996.80;;;;;;5073467;28;20028;-57
2020/12/20 06:53:05;;;;;;;49.65;23.27;;;179.60;1996.80;;;;;;5072961;28;20028;-57
2020/12/20 06:55:31;;;;;;;53.78;24.38;;;179.70;1996.80;;;;;;5072838;28;20051;-56
2020/12/20 06:58:03;;;;;;;52.80;24.75;;;179.80;1971.20;;;;;;5073231;28;20127;-57
2020/12/20 07:00:51;;;;;;;54.45;25.25;;;179.80;1971.20;;;;;;5058206;28;20055;-56
2020/12/20 07:03:23;;;;;;;50.55;23.95;;;179.90;1971.20;;;;;;5072867;28;20039;-56
2020/12/20 07:05:53;;;;;;;55.17;25.70;;;179.80;1971.20;;;;;;5072804;28;20469;-56
2020/12/20 07:08:29;;;;;;;50.97;26.60;;;179.80;1996.80;;;;;;5072845;28;20035;-56
2020/12/20 07:10:55;;;;;;;55.13;28.00;;;179.80;1996.80;;;;;;5073047;28;20390;-57
2020/12/20 07:13:30;;;;;;;209.10;110.53;;;179.90;1971.20;;;;;;5072965;28;20033;-59
2020/12/20 07:16:04;;;;;;;183.27;105.10;;;179.90;1971.20;;;;;;5059450;28;20056;-57
2020/12/20 07:18:47;;;;;;;108.70;75.15;;;180.00;1971.20;;;;;;5072830;28;20016;-57
2020/12/20 07:21:19;;;;;;;69.20;44.50;;;179.90;1971.20;;;;;;5072878;28;20032;-57
2020/12/20 07:23:50;;;;;;;60.90;32.78;;;179.80;1996.80;;;;;;5072867;28;20393;-56
2020/12/20 07:26:15;;;;;;;56.95;27.40;;;180.00;1971.20;;;;;;5071896;28;20103;-56
2020/12/20 07:28:42;;;;;;;54.60;24.80;;;180.10;1945.60;;;;;;5072623;28;20052;-56
2020/12/20 07:31:18;;;;;;;56.22;25.45;;;180.10;1945.60;;;;;;5072876;28;20028;-56
2020/12/20 07:33:44;;;;;;;52.10;26.52;;;204.80;1945.60;;;;;;5072631;28;20053;-56
2020/12/20 07:36:10;;;;;;;54.08;25.52;;;204.80;1945.60;;;;;;5071878;28;20359;-56
2020/12/20 07:38:36;;;;;;;55.10;28.88;;;180.10;1945.60;;;;;;5072588;28;20023;-56
2020/12/20 07:41:09;;;;;;;76.68;46.70;;;180.00;1971.20;;;;;;5072328;28;20023;-56
2020/12/20 07:43:34;;;;;;;63.10;27.70;;;180.00;1971.20;;;;;;5072455;28;20112;-57
2020/12/20 07:46:02;;;;;;;65.10;31.90;;;180.00;1971.20;;;;;;5072227;28;20099;-56
2020/12/20 07:48:28;;;;;;;111.97;68.50;;;180.00;1971.20;;;;;;5072549;28;20033;-57
2020/12/20 07:51:09;;;;;;;88.93;51.20;;;180.00;1971.20;;;;;;5072651;28;20021;-57
2020/12/20 07:53:36;;;;;;;69.32;34.78;;;179.90;1996.80;;;;;;5072722;28;20013;-57
2020/12/20 07:56:02;;;;;;;65.38;34.15;;;179.80;1996.80;;;;;;5071816;28;20032;-56
2020/12/20 07:58:31;;;;;;;66.20;33.88;;;179.70;2022.40;;;;;;5072339;28;20027;-56
2020/12/20 08:01:06;;;;;;;64.85;30.88;;;179.80;1996.80;;;;;;5076289;28;20104;-56
2020/12/20 08:03:33;;;;;;;61.35;33.28;;;179.90;1996.80;;;;;;5076173;28;20810;-57
2020/12/20 08:06:10;;;;;;;55.75;28.67;;;179.80;1996.80;;;;;;5076314;28;20045;-56
2020/12/20 08:08:40;;;;;;;73.00;43.88;;;179.80;1996.80;;;;;;5076660;28;20050;-57
2020/12/20 08:11:26;;;;;;;106.57;76.10;;;179.90;1996.80;;;;;;5076241;28;20028;-56
2020/12/20 08:14:04;;;;;;;80.60;50.97;;;179.80;1996.80;;;;;;5063068;28;20020;-58
2020/12/20 08:16:34;;;;;;;96.80;63.20;;;179.90;1971.20;;;;;;5075636;28;20037;-57
2020/12/20 08:19:05;;;;;;;83.47;46.78;;;180.00;1971.20;;;;;;5076258;28;20027;-57
2020/12/20 08:21:39;;;;;;;86.60;45.58;;;180.00;1971.20;;;;;;5076123;28;20427;-57
2020/12/20 08:24:06;;;;;;;71.10;40.50;;;179.90;1971.20;;;;;;5062929;28;20028;-57
2020/12/20 08:26:33;;;;;;;69.38;41.47;;;180.00;1945.60;;;;;;5075705;28;20025;-57
2020/12/20 08:28:59;;;;;;;67.88;37.65;;;180.10;1945.60;;;;;;5075715;28;20036;-56
2020/12/20 08:31:33;;;;;;;62.15;33.50;;;180.00;1971.20;;;;;;5075985;28;20059;-55
2020/12/20 08:34:00;;;;;;;61.00;31.70;;;180.10;1971.20;;;;;;5075697;28;20046;-57
2020/12/20 08:36:26;;;;;;;66.78;32.13;;;204.90;2124.80;;;;;;5076223;28;20024;-57
2020/12/20 08:38:53;;;;;;;66.65;32.33;;;204.80;1945.60;;;;;;5057788;28;22041;-58
2020/12/20 08:41:29;;;;;;;66.55;33.70;;;204.90;1945.60;;;;;;5073487;28;20021;-56
2020/12/20 08:44:09;;;;;;;63.63;32.10;;;205.00;1920.00;;;;;;5075425;28;20021;-56
2020/12/20 08:46:41;;;;;;;76.00;37.78;;;180.10;1945.60;;;;;;5075215;28;20059;-56
2020/12/20 08:49:15;;;;;;;73.45;42.38;;;179.90;1996.80;;;;;;5075622;28;20021;-56
2020/12/20 08:51:42;;;;;;;71.82;35.15;;;180.10;1971.20;;;;;;5075052;28;20070;-56
2020/12/20 08:54:11;;;;;;;66.20;34.20;;;180.00;1996.80;;;;;;5056765;28;20390;-56
2020/12/20 08:56:52;;;;;;;70.43;34.25;;;180.00;1971.20;;;;;;5074633;28;20115;-56
2020/12/20 08:59:35;;;;;;;65.68;31.27;;;204.80;1971.20;;;;;;5075354;28;20115;-56
2020/12/20 09:02:03;;;;;;;61.63;31.02;;;204.90;1945.60;;;;;;5074583;28;20036;-55
2020/12/20 09:04:34;;;;;;;64.73;31.90;;;204.90;1945.60;;;;;;5072274;28;20036;-56
2020/12/20 09:07:07;;;;;;;64.70;33.00;;;204.90;1945.60;;;;;;5074477;28;20049;-55
2020/12/20 09:09:34;;;;;;;64.85;33.42;;;204.80;1945.60;;;;;;5075588;28;20024;-56
2020/12/20 09:12:18;;;;;;;74.28;33.17;;;204.80;1945.60;;;;;;5074029;28;20086;-54
2020/12/20 09:15:08;;;;;;;64.78;32.15;;;180.10;1971.20;;;;;;5074675;28;20092;-56
2020/12/20 09:17:39;;;;;;;67.72;33.05;;;180.10;1971.20;;;;;;5074680;28;20064;-56
2020/12/20 09:20:07;;;;;;;62.13;31.58;;;204.80;1971.20;;;;;;5075159;28;20069;-56
2020/12/20 09:22:54;;;;;;;61.50;31.95;;;180.10;1971.20;;;;;;5074854;28;20047;-56
2020/12/20 09:25:38;;;;;;;59.17;32.22;;;180.10;1971.20;;;;;;5074818;28;20502;-55
2020/12/20 09:28:09;;;;;;;55.28;28.77;;;180.10;1945.60;;;;;;5074878;28;20512;-55
2020/12/20 09:30:42;;;;;;;54.90;29.27;;;204.80;1920.00;;;;;;5074685;28;20423;-58
2020/12/20 09:33:28;;;;;;;56.75;28.98;;;204.80;1920.00;;;;;;5074778;28;20127;-57
2020/12/20 09:36:16;;;;;;;48.67;27.67;;;204.90;1920.00;;;;;;5055172;28;20466;-56
2020/12/20 09:38:46;;;;;;;52.90;27.13;;;205.10;1894.40;;;;;;5071750;28;20029;-58
2020/12/20 09:41:14;;;;;;;55.40;29.15;;;205.10;1868.80;;;;;;5055999;28;20028;-55
2020/12/20 09:43:40;;;;;;;48.58;26.67;;;205.20;1868.80;;;;;;5074426;28;20074;-55
2020/12/20 09:46:07;;;;;;;46.20;26.27;;;205.20;1868.80;;;;;;5074662;28;20086;-56
2020/12/20 09:48:33;;;;;;;49.38;28.20;;;205.40;1843.20;;;;;;5074166;28;20085;-55
2020/12/20 09:50:59;;;;;;;47.10;25.38;;;205.50;1843.20;;;;;;5074434;28;20032;-55
2020/12/20 09:53:24;;;;;;;43.40;24.77;;;205.60;1792.00;;;;;;5074307;28;20017;-57
2020/12/20 09:55:50;;;;;;;51.80;26.80;;;205.60;1792.00;;;;;;5074228;28;20499;-56
2020/12/20 09:58:16;;;;;;;46.33;26.17;;;205.60;1792.00;;;;;;5074080;28;20098;-56
2020/12/20 10:00:43;;;;;;;43.28;23.00;;;205.60;1817.60;;;;;;5073774;28;20032;-56
2020/12/20 10:03:10;;;;;;;44.22;24.45;;;230.40;1766.40;;;;;;5055761;28;20032;-55
2020/12/20 10:05:39;;;;;;;46.78;24.73;;;230.60;1740.80;;;;;;5074028;28;20066;-60
2020/12/20 10:08:05;;;;;;;;;;;230.40;1766.40;;;;;;5074507;28;20033;-56
2020/12/20 10:10:31;;;;;;;54.30;26.45;;;205.70;1766.40;;;;;;5073910;28;19911;-56
2020/12/20 10:12:57;;;;;;;45.75;24.55;;;205.70;1766.40;;;;;;5073867;28;20017;-56
2020/12/20 10:15:24;;;;;;;48.55;25.20;;;230.40;1766.40;;;;;;5073775;28;20035;-56
2020/12/20 10:17:49;;;;;;;45.53;25.10;;;230.40;1766.40;;;;;;5055837;28;20036;-56
2020/12/20 10:20:15;;;;;;;45.83;27.00;;;230.40;1766.40;;;;;;5073803;28;20383;-56
2020/12/20 10:22:41;;;;;;;56.42;29.23;;;230.50;1766.40;;;;;;5072570;28;20112;-58
2020/12/20 10:25:07;;;;;;;50.50;28.55;;;230.50;1766.40;;;;;;5073714;28;20016;-56
2020/12/20 10:27:33;;;;;;;52.00;28.27;;;205.70;1766.40;;;;;;5073368;28;20028;-56
2020/12/20 10:29:59;;;;;;;46.78;25.95;;;205.70;1766.40;;;;;;5073702;28;20030;-59
2020/12/20 10:32:24;;;;;;;49.70;29.10;;;205.70;1792.00;;;;;;5073457;28;20447;-59
2020/12/20 10:34:50;;;;;;;54.38;28.08;;;205.70;1792.00;;;;;;5073559;28;20029;-59
2020/12/20 10:37:16;;;;;;;52.53;28.33;;;205.40;1817.60;;;;;;5072916;28;20048;-58
2020/12/20 10:39:42;;;;;;;57.35;29.85;;;205.60;1817.60;;;;;;5073567;28;20028;-58
2020/12/20 10:42:16;;;;;;;94.13;50.03;;;205.50;1817.60;;;;;;5073190;28;20028;-56
2020/12/20 10:44:42;;;;;;;67.35;42.20;;;205.60;1792.00;;;;;;5073198;28;20024;-59
2020/12/20 10:47:08;;;;;;;77.88;49.00;;;205.60;1792.00;;;;;;5055237;28;20036;-56
2020/12/20 10:49:34;;;;;;;55.67;33.35;;;205.70;1817.60;;;;;;5073028;28;20020;-56
2020/12/20 10:52:00;;;;;;;57.00;31.55;;;205.70;1792.00;;;;;;5072902;28;20029;-57
2020/12/20 10:54:29;;;;;;;51.53;30.13;;;230.40;1792.00;;;;;;5054542;28;20417;-59
2020/12/20 10:56:59;;;;;;;52.72;28.65;;;205.70;1792.00;;;;;;5072949;28;20036;-59
2020/12/20 10:59:30;;;;;;;61.15;30.45;;;230.40;1766.40;;;;;;5073053;28;20107;-56
2020/12/20 11:01:56;;;;;;;58.50;31.88;;;230.40;1766.40;;;;;;5055789;28;20064;-58
2020/12/20 11:04:23;;;;;;;58.78;36.08;;;230.50;1766.40;;;;;;5072775;28;20028;-56
2020/12/20 11:06:48;;;;;;;56.72;34.30;;;205.60;1817.60;;;;;;5072363;28;20055;-57
2020/12/20 11:09:14;;;;;;;60.25;34.33;;;205.60;1792.00;;;;;;5073116;28;20021;-58
2020/12/20 11:11:43;;;;;;;82.57;48.75;;;205.60;1792.00;;;;;;5072713;28;20474;-57
2020/12/20 11:14:09;;;;;;;63.75;35.80;;;205.60;1817.60;;;;;;5073250;28;20343;-58
2020/12/20 11:16:35;;;;;;;69.72;40.58;;;205.70;1792.00;;;;;;5072251;28;20046;-59
2020/12/20 11:19:01;;;;;;;59.00;34.38;;;230.40;1792.00;;;;;;5072900;28;20382;-59
2020/12/20 11:21:26;;;;;;;56.75;32.90;;;230.40;1792.00;;;;;;5072485;28;20033;-58
2020/12/20 11:23:52;;;;;;;56.83;32.20;;;230.40;1792.00;;;;;;5073364;28;20028;-57
2020/12/20 11:26:20;;;;;;;52.33;29.80;;;230.40;1792.00;;;;;;5072417;28;20028;-56
2020/12/20 11:28:48;;;;;;;55.92;31.10;;;230.50;1766.40;;;;;;5072620;28;20035;-56
2020/12/20 11:31:23;;;;;;;48.03;28.25;;;230.60;1740.80;;;;;;5072402;28;20044;-57
2020/12/20 11:33:49;;;;;;;54.45;30.15;;;230.60;1740.80;;;;;;5072185;28;20475;-55
2020/12/20 11:36:17;;;;;;;53.10;30.50;;;230.50;1766.40;;;;;;5053665;28;20037;-60
2020/12/20 11:38:43;;;;;;;60.83;33.03;;;230.50;1766.40;;;;;;5072476;28;20104;-57
2020/12/20 11:41:09;;;;;;;58.60;31.88;;;230.40;1792.00;;;;;;5072423;28;20112;-60
2020/12/20 11:43:34;;;;;;;60.08;33.47;;;230.40;1792.00;;;;;;5072505;28;20425;-55
2020/12/20 11:46:00;;;;;;;64.57;31.75;;;230.50;1766.40;;;;;;5070807;28;20056;-60
2020/12/20 11:48:26;;;;;;;59.20;32.75;;;230.50;1792.00;;;;;;5067455;28;20058;-59
2020/12/20 11:50:51;;;;;;;56.97;31.60;;;230.50;1766.40;;;;;;5071394;28;20051;-62
2020/12/20 11:53:17;;;;;;;59.92;34.65;;;230.50;1792.00;;;;;;5070424;28;20062;-61
2020/12/20 11:55:43;;;;;;;57.83;33.60;;;205.60;1817.60;;;;;;5070438;28;20031;-58
2020/12/20 11:58:13;;;;;;;57.95;32.67;;;205.60;1817.60;;;;;;5052222;28;20036;-61
2020/12/20 12:00:46;;;;;;;58.03;31.67;;;230.40;1792.00;;;;;;5070069;28;20060;-63
2020/12/20 12:03:13;;;;;;;61.90;32.92;;;230.40;1792.00;;;;;;5070169;28;20044;-58